createdAt,value
2022-12-15T00:06:29.645Z,19.48
2022-12-15T00:14:22.622Z,21.25
2022-12-15T00:22:14.059Z,19.88
2022-12-15T00:30:06.892Z,22.83
2022-12-15T00:37:58.198Z,23.33
2022-12-15T00:45:47.203Z,24.65
2022-12-15T00:53:38.797Z,24.85
2022-12-15T01:01:31.582Z,27.70
2022-12-15T01:09:25.262Z,25.80
2022-12-15T01:17:18.098Z,31.55
2022-12-15T01:24:51.966Z,28.77
2022-12-15T01:32:27.686Z,30.05
2022-12-15T01:40:18.962Z,31.60
2022-12-15T01:47:56.803Z,31.42
2022-12-15T01:55:32.447Z,28.55
2022-12-15T02:03:08.995Z,29.48
2022-12-15T02:11:08.560Z,26.55
2022-12-15T02:18:56.313Z,28.80
2022-12-15T02:26:51.307Z,29.33
2022-12-15T02:34:35.807Z,30.58
2022-12-15T02:42:11.752Z,24.55
2022-12-15T02:50:00.600Z,24.88
2022-12-15T02:57:41.009Z,24.30
2022-12-15T03:05:17.833Z,22.48
2022-12-15T03:12:55.843Z,25.88
2022-12-15T03:20:32.673Z,24.85
2022-12-15T03:28:06.943Z,22.98
2022-12-15T03:35:42.121Z,25.58
2022-12-15T03:43:15.968Z,23.70
2022-12-15T03:50:51.799Z,23.20
2022-12-15T03:58:25.733Z,23.48
2022-12-15T04:06:00.976Z,22.40
2022-12-15T04:13:35.071Z,21.25
2022-12-15T04:21:10.414Z,21.45
2022-12-15T04:29:01.519Z,19.27
2022-12-15T04:36:56.293Z,17.17
2022-12-15T04:44:50.286Z,18.73
2022-12-15T04:52:42.888Z,17.80
2022-12-15T05:00:34.539Z,19.33
2022-12-15T05:08:27.228Z,17.00
2022-12-15T05:16:18.987Z,18.42
2022-12-15T05:24:11.991Z,18.58
2022-12-15T05:31:51.854Z,17.38
2022-12-15T05:39:27.918Z,17.02
2022-12-15T05:47:01.717Z,17.38
2022-12-15T05:54:37.036Z,17.42
2022-12-15T06:02:11.099Z,16.75
2022-12-15T06:09:46.770Z,16.75
2022-12-15T06:17:22.938Z,17.48
2022-12-15T06:24:58.305Z,16.42
2022-12-15T06:32:32.538Z,16.55
2022-12-15T06:40:09.763Z,16.40
2022-12-15T06:47:43.950Z,17.73
2022-12-15T06:55:19.327Z,16.52
2022-12-15T07:02:53.326Z,18.30
2022-12-15T07:10:29.637Z,17.70
2022-12-15T07:18:03.643Z,17.08
2022-12-15T07:25:39.071Z,18.17
2022-12-15T07:33:13.023Z,17.20
2022-12-15T07:40:51.946Z,16.83
2022-12-15T07:48:27.326Z,17.23
2022-12-15T07:56:09.272Z,16.23
2022-12-15T08:03:45.195Z,16.98
2022-12-15T08:11:23.020Z,17.15
2022-12-15T08:18:57.839Z,17.30
2022-12-15T08:26:32.984Z,18.75
2022-12-15T08:34:07.406Z,17.42
2022-12-15T08:41:42.770Z,19.33
2022-12-15T08:49:21.658Z,18.83
2022-12-15T08:56:57.204Z,20.50
2022-12-15T09:04:31.130Z,20.90
2022-12-15T09:12:07.387Z,18.00
2022-12-15T09:19:41.505Z,21.08
2022-12-15T09:27:16.770Z,21.55
2022-12-15T09:34:52.037Z,19.17
2022-12-15T09:42:29.863Z,19.17
2022-12-15T09:50:05.894Z,19.98
2022-12-15T09:57:46.694Z,19.23
2022-12-15T10:05:57.480Z,18.10
2022-12-15T10:13:33.691Z,20.05
2022-12-15T10:21:14.237Z,20.02
2022-12-15T10:29:04.270Z,19.55
2022-12-15T10:36:38.161Z,19.48
2022-12-15T10:44:30.435Z,23.30
2022-12-15T10:52:06.339Z,19.25
2022-12-15T10:59:41.663Z,22.00
2022-12-15T11:07:16.000Z,21.92
2022-12-15T11:14:52.567Z,19.10
2022-12-15T11:22:37.992Z,20.50
2022-12-15T11:30:16.781Z,19.15
2022-12-15T11:37:57.933Z,17.95
2022-12-15T11:45:43.004Z,19.38
2022-12-15T11:53:36.883Z,18.58
2022-12-15T12:01:22.413Z,19.75
2022-12-15T12:09:16.812Z,21.15
2022-12-15T12:17:01.482Z,19.67
2022-12-15T12:24:42.029Z,19.90
2022-12-15T12:32:33.937Z,20.17
2022-12-15T12:40:19.665Z,18.67
2022-12-15T12:47:59.507Z,19.33
2022-12-15T12:55:40.120Z,19.98
2022-12-15T13:03:21.530Z,18.52
2022-12-15T13:10:56.631Z,20.80
2022-12-15T13:19:02.240Z,19.63
2022-12-15T13:26:36.459Z,20.30
2022-12-15T13:34:18.313Z,19.27
2022-12-15T13:42:34.996Z,19.00
2022-12-15T13:50:20.872Z,17.95
2022-12-15T13:58:00.129Z,20.80
2022-12-15T14:05:36.823Z,19.83
2022-12-15T14:13:16.442Z,19.90
2022-12-15T14:20:51.689Z,18.23
2022-12-15T14:28:28.166Z,19.55
2022-12-15T14:36:08.064Z,16.90
2022-12-15T14:43:43.251Z,18.98
2022-12-15T14:51:19.418Z,19.55
2022-12-15T14:59:00.681Z,17.88
2022-12-15T15:06:41.541Z,18.58
2022-12-15T15:14:18.482Z,18.48
2022-12-15T15:21:53.771Z,19.02
2022-12-15T15:29:39.048Z,20.85
2022-12-15T15:37:18.797Z,20.88
2022-12-15T15:44:52.621Z,20.02
2022-12-15T15:52:31.976Z,19.38
2022-12-15T16:00:17.093Z,18.92
2022-12-15T16:07:52.462Z,19.45
2022-12-15T16:15:29.518Z,20.40
2022-12-15T16:23:08.640Z,19.52
2022-12-15T16:30:44.187Z,20.75
2022-12-15T16:38:25.764Z,20.15
2022-12-15T16:45:59.583Z,19.40
2022-12-15T16:53:37.904Z,20.42
2022-12-15T17:01:12.929Z,21.95
2022-12-15T17:08:54.400Z,18.67
2022-12-15T17:16:29.933Z,19.65
2022-12-15T17:24:09.319Z,20.65
2022-12-15T17:31:43.639Z,19.55
2022-12-15T17:39:20.618Z,22.42
2022-12-15T17:46:54.738Z,19.20
2022-12-15T17:54:30.216Z,22.40
2022-12-15T18:02:04.160Z,22.15
2022-12-15T18:09:40.180Z,23.45
2022-12-15T18:17:14.085Z,23.63
2022-12-15T18:24:50.143Z,24.98
2022-12-15T18:32:26.164Z,23.42
2022-12-15T18:40:04.931Z,22.42
2022-12-15T18:47:39.618Z,22.63
2022-12-15T18:55:21.422Z,25.08
2022-12-15T19:02:57.402Z,20.25
2022-12-15T19:10:35.360Z,21.75
2022-12-15T19:18:32.285Z,20.85
2022-12-15T19:26:11.351Z,20.83
2022-12-15T19:33:45.474Z,18.85
2022-12-15T19:41:21.132Z,20.30
2022-12-15T19:48:55.356Z,20.80
2022-12-15T19:56:31.046Z,21.48
2022-12-15T20:04:05.044Z,20.70
2022-12-15T20:11:40.473Z,20.95
2022-12-15T20:27:13.372Z,22.27
2022-12-15T20:34:49.165Z,20.63
2022-12-15T20:42:24.914Z,21.52
2022-12-15T20:49:58.828Z,21.73
2022-12-15T20:57:34.120Z,21.65
2022-12-15T21:05:09.057Z,20.48
2022-12-15T21:12:46.771Z,20.77
2022-12-15T21:20:20.971Z,22.40
2022-12-15T21:27:56.241Z,19.88
2022-12-15T21:35:31.909Z,21.45
2022-12-15T21:43:07.381Z,19.85
2022-12-15T21:50:43.380Z,20.83
2022-12-15T21:58:21.928Z,20.77
2022-12-15T22:05:55.794Z,21.00
2022-12-15T22:13:32.875Z,21.10
2022-12-15T22:21:07.752Z,21.35
2022-12-15T22:28:43.157Z,22.02
2022-12-15T22:36:17.264Z,21.83
2022-12-15T22:43:55.249Z,22.25
2022-12-15T22:51:29.107Z,21.23
2022-12-15T22:59:09.021Z,21.40
2022-12-15T23:06:42.912Z,22.55
2022-12-15T23:14:19.082Z,22.08
2022-12-15T23:21:53.114Z,21.33
2022-12-15T23:29:28.357Z,21.10
2022-12-15T23:37:02.700Z,20.60
2022-12-15T23:44:38.400Z,21.13
2022-12-15T23:52:12.427Z,21.25
2022-12-15T23:59:47.574Z,22.67
